sensor_id;sensor_type;location;lat;lon;timestamp;pressure;altitude;pressure_sealevel;temperature;humidity
63927;BME280;50103;47.960;21.712;2022-10-28T05:01:28;101818.66;;;9.10;100.00
63927;BME280;50103;47.960;21.712;2022-10-28T05:03:54;101818.73;;;9.08;100.00
63927;BME280;50103;47.960;21.712;2022-10-28T05:06:19;101820.06;;;9.10;100.00
63927;BME280;50103;47.960;21.712;2022-10-28T05:08:48;101821.49;;;9.09;100.00
63927;BME280;50103;47.960;21.712;2022-10-28T05:11:13;101823.30;;;9.09;100.00
63927;BME280;50103;47.960;21.712;2022-10-28T05:13:39;101825.88;;;9.07;100.00
63927;BME280;50103;47.960;21.712;2022-10-28T05:16:05;101822.59;;;9.05;100.00
63927;BME280;50103;47.960;21.712;2022-10-28T05:18:31;101824.83;;;9.03;100.00
63927;BME280;50103;47.960;21.712;2022-10-28T05:21:00;101822.22;;;9.02;100.00
63927;BME280;50103;47.960;21.712;2022-10-28T05:23:28;101823.06;;;9.03;100.00
63927;BME280;50103;47.960;21.712;2022-10-28T05:25:53;101821.65;;;9.03;100.00
63927;BME280;50103;47.960;21.712;2022-10-28T05:28:19;101823.42;;;9.03;100.00
63927;BME280;50103;47.960;21.712;2022-10-28T05:30:47;101825.71;;;9.03;100.00
63927;BME280;50103;47.960;21.712;2022-10-28T05:33:15;101826.02;;;9.04;100.00
63927;BME280;50103;47.960;21.712;2022-10-28T05:35:40;101825.45;;;9.04;100.00
63927;BME280;50103;47.960;21.712;2022-10-28T05:38:06;101823.34;;;9.04;100.00
63927;BME280;50103;47.960;21.712;2022-10-28T05:40:34;101823.04;;;9.03;100.00
63927;BME280;50103;47.960;21.712;2022-10-28T05:43:01;101824.09;;;9.03;100.00
63927;BME280;50103;47.960;21.712;2022-10-28T05:45:28;101820.05;;;9.03;100.00
63927;BME280;50103;47.960;21.712;2022-10-28T05:47:54;101819.00;;;9.03;100.00
63927;BME280;50103;47.960;21.712;2022-10-28T05:50:20;101818.96;;;9.03;100.00
63927;BME280;50103;47.960;21.712;2022-10-28T05:52:49;101818.71;;;9.05;100.00
63927;BME280;50103;47.960;21.712;2022-10-28T05:55:17;101823.35;;;9.08;100.00
63927;BME280;50103;47.960;21.712;2022-10-28T05:57:46;101821.54;;;9.08;100.00
63927;BME280;50103;47.960;21.712;2022-10-28T06:00:13;101824.73;;;9.08;100.00
63927;BME280;50103;47.960;21.712;2022-10-28T06:02:40;101824.77;;;9.08;100.00
63927;BME280;50103;47.960;21.712;2022-10-28T06:05:07;101825.48;;;9.08;100.00
63927;BME280;50103;47.960;21.712;2022-10-28T06:07:40;101823.20;;;9.07;100.00
63927;BME280;50103;47.960;21.712;2022-10-28T06:10:10;101822.95;;;9.09;100.00
63927;BME280;50103;47.960;21.712;2022-10-28T06:12:36;101825.52;;;9.10;100.00
63927;BME280;50103;47.960;21.712;2022-10-28T06:15:02;101823.96;;;9.13;100.00
63927;BME280;50103;47.960;21.712;2022-10-28T06:17:28;101822.81;;;9.15;100.00
63927;BME280;50103;47.960;21.712;2022-10-28T06:19:55;101822.40;;;9.17;100.00
63927;BME280;50103;47.960;21.712;2022-10-28T06:22:21;101825.52;;;9.18;100.00
63927;BME280;50103;47.960;21.712;2022-10-28T06:24:53;101826.23;;;9.18;100.00
63927;BME280;50103;47.960;21.712;2022-10-28T06:27:20;101832.18;;;9.20;100.00
63927;BME280;50103;47.960;21.712;2022-10-28T06:29:45;101833.45;;;9.19;100.00
63927;BME280;50103;47.960;21.712;2022-10-28T06:32:12;101836.94;;;9.20;100.00
63927;BME280;50103;47.960;21.712;2022-10-28T06:34:49;101831.73;;;9.22;100.00
63927;BME280;50103;47.960;21.712;2022-10-28T06:37:15;101830.74;;;9.24;100.00
63927;BME280;50103;47.960;21.712;2022-10-28T06:39:41;101829.69;;;9.27;100.00
63927;BME280;50103;47.960;21.712;2022-10-28T06:42:08;101832.75;;;9.29;100.00
63927;BME280;50103;47.960;21.712;2022-10-28T06:44:37;101831.25;;;9.31;100.00
63927;BME280;50103;47.960;21.712;2022-10-28T06:47:03;101832.88;;;9.35;100.00
63927;BME280;50103;47.960;21.712;2022-10-28T06:49:30;101837.69;;;9.37;100.00
63927;BME280;50103;47.960;21.712;2022-10-28T06:51:56;101839.41;;;9.38;100.00
63927;BME280;50103;47.960;21.712;2022-10-28T06:54:24;101843.88;;;9.41;100.00
63927;BME280;50103;47.960;21.712;2022-10-28T06:56:49;101847.61;;;9.44;100.00
63927;BME280;50103;47.960;21.712;2022-10-28T06:59:18;101846.23;;;9.47;100.00
63927;BME280;50103;47.960;21.712;2022-10-28T07:01:44;101847.44;;;9.52;100.00
63927;BME280;50103;47.960;21.712;2022-10-28T07:04:11;101850.92;;;9.56;100.00
63927;BME280;50103;47.960;21.712;2022-10-28T07:06:38;101852.09;;;9.61;100.00
63927;BME280;50103;47.960;21.712;2022-10-28T07:09:07;101845.15;;;9.66;100.00
63927;BME280;50103;47.960;21.712;2022-10-28T07:11:38;101843.86;;;9.70;100.00
63927;BME280;50103;47.960;21.712;2022-10-28T07:14:04;101850.66;;;9.76;100.00
63927;BME280;50103;47.960;21.712;2022-10-28T07:16:31;101849.52;;;9.77;100.00
63927;BME280;50103;47.960;21.712;2022-10-28T07:18:56;101850.86;;;9.79;100.00
63927;BME280;50103;47.960;21.712;2022-10-28T07:21:25;101851.38;;;9.83;100.00
63927;BME280;50103;47.960;21.712;2022-10-28T07:23:57;101849.96;;;9.87;100.00
63927;BME280;50103;47.960;21.712;2022-10-28T07:26:28;101853.29;;;9.87;100.00
63927;BME280;50103;47.960;21.712;2022-10-28T07:28:54;101852.15;;;9.89;100.00
63927;BME280;50103;47.960;21.712;2022-10-28T07:31:22;101853.79;;;9.91;100.00
63927;BME280;50103;47.960;21.712;2022-10-28T07:33:54;101856.84;;;9.94;100.00
63927;BME280;50103;47.960;21.712;2022-10-28T07:36:25;101860.74;;;9.97;100.00
63927;BME280;50103;47.960;21.712;2022-10-28T07:38:55;101864.18;;;10.03;100.00
63927;BME280;50103;47.960;21.712;2022-10-28T07:41:21;101866.14;;;10.06;100.00
63927;BME280;50103;47.960;21.712;2022-10-28T07:43:48;101861.02;;;10.09;100.00
63927;BME280;50103;47.960;21.712;2022-10-28T07:46:15;101864.23;;;10.12;100.00
63927;BME280;50103;47.960;21.712;2022-10-28T07:48:42;101869.50;;;10.17;100.00
63927;BME280;50103;47.960;21.712;2022-10-28T07:51:12;101867.94;;;10.21;100.00
63927;BME280;50103;47.960;21.712;2022-10-28T07:53:39;101865.82;;;10.23;100.00
63927;BME280;50103;47.960;21.712;2022-10-28T07:56:07;101860.11;;;10.28;100.00
63927;BME280;50103;47.960;21.712;2022-10-28T07:58:36;101857.83;;;10.31;100.00
63927;BME280;50103;47.960;21.712;2022-10-28T08:01:04;101862.16;;;10.37;100.00
63927;BME280;50103;47.960;21.712;2022-10-28T08:03:33;101860.65;;;10.41;100.00
63927;BME280;50103;47.960;21.712;2022-10-28T08:06:24;101860.76;;;10.42;100.00
63927;BME280;50103;47.960;21.712;2022-10-28T08:09:12;101857.60;;;10.46;100.00
63927;BME280;50103;47.960;21.712;2022-10-28T08:11:37;101862.13;;;10.50;100.00
63927;BME280;50103;47.960;21.712;2022-10-28T08:14:04;101862.64;;;10.55;100.00
63927;BME280;50103;47.960;21.712;2022-10-28T08:16:35;101863.42;;;10.56;100.00
63927;BME280;50103;47.960;21.712;2022-10-28T08:19:01;101859.52;;;10.60;100.00
63927;BME280;50103;47.960;21.712;2022-10-28T08:21:26;101861.61;;;10.64;100.00
63927;BME280;50103;47.960;21.712;2022-10-28T08:23:53;101862.28;;;10.68;100.00
63927;BME280;50103;47.960;21.712;2022-10-28T08:26:19;101864.60;;;10.71;100.00
63927;BME280;50103;47.960;21.712;2022-10-28T08:28:45;101864.75;;;10.74;100.00
63927;BME280;50103;47.960;21.712;2022-10-28T08:31:10;101858.44;;;10.73;100.00
63927;BME280;50103;47.960;21.712;2022-10-28T08:33:42;101863.31;;;10.78;100.00
63927;BME280;50103;47.960;21.712;2022-10-28T08:36:13;101860.73;;;10.84;100.00
63927;BME280;50103;47.960;21.712;2022-10-28T08:38:43;101856.95;;;10.91;100.00
63927;BME280;50103;47.960;21.712;2022-10-28T08:41:25;101850.74;;;10.98;100.00
63927;BME280;50103;47.960;21.712;2022-10-28T08:49:45;101860.56;;;11.22;100.00
63927;BME280;50103;47.960;21.712;2022-10-28T08:52:25;101856.79;;;11.30;100.00
63927;BME280;50103;47.960;21.712;2022-10-28T08:55:25;101855.56;;;11.36;100.00
63927;BME280;50103;47.960;21.712;2022-10-28T09:00:42;101856.78;;;11.55;100.00
63927;BME280;50103;47.960;21.712;2022-10-28T09:03:23;101857.92;;;11.63;100.00
63927;BME280;50103;47.960;21.712;2022-10-28T09:05:59;101854.50;;;11.73;100.00
63927;BME280;50103;47.960;21.712;2022-10-28T09:08:30;101859.41;;;11.84;100.00
63927;BME280;50103;47.960;21.712;2022-10-28T09:19:03;101863.38;;;12.19;100.00
63927;BME280;50103;47.960;21.712;2022-10-28T09:21:36;101863.90;;;12.29;100.00
63927;BME280;50103;47.960;21.712;2022-10-28T09:24:16;101859.97;;;12.38;100.00
63927;BME280;50103;47.960;21.712;2022-10-28T09:27:04;101860.79;;;12.48;100.00
63927;BME280;50103;47.960;21.712;2022-10-28T09:35:10;101863.02;;;12.70;100.00
63927;BME280;50103;47.960;21.712;2022-10-28T09:37:40;101861.70;;;12.74;100.00
63927;BME280;50103;47.960;21.712;2022-10-28T09:40:18;101862.92;;;12.77;100.00
63927;BME280;50103;47.960;21.712;2022-10-28T09:43:21;101865.34;;;12.81;100.00
63927;BME280;50103;47.960;21.712;2022-10-28T09:45:44;101861.14;;;12.85;100.00
63927;BME280;50103;47.960;21.712;2022-10-28T09:48:25;101856.36;;;12.91;100.00
63927;BME280;50103;47.960;21.712;2022-10-28T09:50:54;101856.84;;;12.98;100.00
63927;BME280;50103;47.960;21.712;2022-10-28T09:55:53;101854.06;;;13.13;100.00
63927;BME280;50103;47.960;21.712;2022-10-28T09:58:21;101851.77;;;13.19;100.00
63927;BME280;50103;47.960;21.712;2022-10-28T10:00:50;101847.31;;;13.25;100.00
63927;BME280;50103;47.960;21.712;2022-10-28T10:03:16;101841.71;;;13.32;100.00
63927;BME280;50103;47.960;21.712;2022-10-28T10:05:48;101838.55;;;13.37;100.00
63927;BME280;50103;47.960;21.712;2022-10-28T10:08:17;101837.87;;;13.42;100.00
63927;BME280;50103;47.960;21.712;2022-10-28T10:10:53;101833.39;;;13.48;100.00
63927;BME280;50103;47.960;21.712;2022-10-28T10:13:24;101826.96;;;13.53;100.00
63927;BME280;50103;47.960;21.712;2022-10-28T10:15:55;101825.64;;;13.57;100.00
63927;BME280;50103;47.960;21.712;2022-10-28T10:18:24;101829.59;;;13.60;100.00
63927;BME280;50103;47.960;21.712;2022-10-28T10:20:53;101823.45;;;13.61;100.00
63927;BME280;50103;47.960;21.712;2022-10-28T10:23:46;101822.45;;;13.65;100.00
63927;BME280;50103;47.960;21.712;2022-10-28T10:26:14;101826.01;;;13.71;100.00
63927;BME280;50103;47.960;21.712;2022-10-28T10:28:48;101831.95;;;13.75;100.00
63927;BME280;50103;47.960;21.712;2022-10-28T10:31:24;101833.48;;;13.79;100.00
63927;BME280;50103;47.960;21.712;2022-10-28T10:33:53;101835.24;;;13.81;100.00
63927;BME280;50103;47.960;21.712;2022-10-28T10:36:24;101834.97;;;13.83;100.00
63927;BME280;50103;47.960;21.712;2022-10-28T10:39:00;101835.05;;;13.82;100.00
63927;BME280;50103;47.960;21.712;2022-10-28T10:41:43;101834.50;;;13.82;100.00
63927;BME280;50103;47.960;21.712;2022-10-28T10:49:25;101832.44;;;13.91;100.00
63927;BME280;50103;47.960;21.712;2022-10-28T10:51:52;101829.94;;;13.94;100.00
63927;BME280;50103;47.960;21.712;2022-10-28T10:54:19;101828.98;;;13.95;100.00
63927;BME280;50103;47.960;21.712;2022-10-28T10:56:45;101822.50;;;13.98;100.00
63927;BME280;50103;47.960;21.712;2022-10-28T10:59:22;101816.66;;;14.04;100.00
63927;BME280;50103;47.960;21.712;2022-10-28T11:01:49;101818.70;;;14.08;100.00
63927;BME280;50103;47.960;21.712;2022-10-28T11:04:18;101818.13;;;14.11;100.00
63927;BME280;50103;47.960;21.712;2022-10-28T11:06:51;101819.52;;;14.14;100.00
63927;BME280;50103;47.960;21.712;2022-10-28T11:11:56;101821.90;;;14.15;100.00
63927;BME280;50103;47.960;21.712;2022-10-28T11:14:27;101816.73;;;14.16;100.00
63927;BME280;50103;47.960;21.712;2022-10-28T11:16:57;101814.86;;;14.14;100.00
63927;BME280;50103;47.960;21.712;2022-10-28T11:19:30;101811.84;;;14.14;100.00
63927;BME280;50103;47.960;21.712;2022-10-28T11:22:20;101810.35;;;14.15;100.00
63927;BME280;50103;47.960;21.712;2022-10-28T11:27:50;101805.81;;;14.16;100.00
63927;BME280;50103;47.960;21.712;2022-10-28T11:30:31;101804.27;;;14.16;100.00
63927;BME280;50103;47.960;21.712;2022-10-28T11:33:27;101806.69;;;14.19;100.00
63927;BME280;50103;47.960;21.712;2022-10-28T11:41:39;101805.52;;;14.26;100.00
63927;BME280;50103;47.960;21.712;2022-10-28T11:52:38;101810.23;;;14.32;100.00
63927;BME280;50103;47.960;21.712;2022-10-28T12:00:49;101809.62;;;14.26;100.00
63927;BME280;50103;47.960;21.712;2022-10-28T12:09:09;101813.58;;;14.20;100.00
63927;BME280;50103;47.960;21.712;2022-10-28T12:11:52;101807.25;;;14.19;100.00
63927;BME280;50103;47.960;21.712;2022-10-28T12:17:46;101797.95;;;14.19;100.00
63927;BME280;50103;47.960;21.712;2022-10-28T12:20:20;101797.46;;;14.21;100.00
63927;BME280;50103;47.960;21.712;2022-10-28T12:22:53;101792.91;;;14.23;100.00
63927;BME280;50103;47.960;21.712;2022-10-28T12:25:27;101786.25;;;14.26;100.00
63927;BME280;50103;47.960;21.712;2022-10-28T12:28:03;101784.27;;;14.31;100.00
63927;BME280;50103;47.960;21.712;2022-10-28T12:30:35;101776.54;;;14.35;100.00
63927;BME280;50103;47.960;21.712;2022-10-28T12:38:45;101764.89;;;14.42;100.00
63927;BME280;50103;47.960;21.712;2022-10-28T12:41:16;101760.67;;;14.46;100.00
63927;BME280;50103;47.960;21.712;2022-10-28T12:44:08;101754.02;;;14.49;100.00
63927;BME280;50103;47.960;21.712;2022-10-28T12:46:56;101752.98;;;14.54;100.00
63927;BME280;50103;47.960;21.712;2022-10-28T12:51:56;101752.56;;;14.60;100.00
63927;BME280;50103;47.960;21.712;2022-10-28T12:54:41;101752.12;;;14.61;100.00
63927;BME280;50103;47.960;21.712;2022-10-28T12:57:17;101750.04;;;14.62;100.00
63927;BME280;50103;47.960;21.712;2022-10-28T12:59:49;101747.89;;;14.62;100.00
63927;BME280;50103;47.960;21.712;2022-10-28T13:02:21;101747.48;;;14.63;100.00
63927;BME280;50103;47.960;21.712;2022-10-28T13:04:48;101747.44;;;14.64;100.00
63927;BME280;50103;47.960;21.712;2022-10-28T13:07:18;101748.39;;;14.63;100.00
63927;BME280;50103;47.960;21.712;2022-10-28T13:10:22;101743.66;;;14.64;100.00
63927;BME280;50103;47.960;21.712;2022-10-28T13:18:45;101738.41;;;14.63;100.00
63927;BME280;50103;47.960;21.712;2022-10-28T13:24:19;101744.58;;;14.64;100.00
63927;BME280;50103;47.960;21.712;2022-10-28T13:26:46;101748.36;;;14.63;100.00
63927;BME280;50103;47.960;21.712;2022-10-28T13:29:26;101749.33;;;14.62;100.00
63927;BME280;50103;47.960;21.712;2022-10-28T13:31:54;101751.84;;;14.60;100.00
63927;BME280;50103;47.960;21.712;2022-10-28T13:34:32;101744.67;;;14.60;100.00
63927;BME280;50103;47.960;21.712;2022-10-28T13:37:00;101745.98;;;14.62;100.00
63927;BME280;50103;47.960;21.712;2022-10-28T13:44:51;101740.91;;;14.63;100.00
63927;BME280;50103;47.960;21.712;2022-10-28T13:47:28;101740.19;;;14.61;100.00
63927;BME280;50103;47.960;21.712;2022-10-28T13:52:39;101733.38;;;14.56;100.00
63927;BME280;50103;47.960;21.712;2022-10-28T13:55:19;101730.10;;;14.55;100.00
63927;BME280;50103;47.960;21.712;2022-10-28T13:57:47;101736.46;;;14.50;100.00
63927;BME280;50103;47.960;21.712;2022-10-28T14:02:54;101735.28;;;14.47;100.00
63927;BME280;50103;47.960;21.712;2022-10-28T14:08:30;101739.52;;;14.43;100.00
63927;BME280;50103;47.960;21.712;2022-10-28T14:11:05;101740.41;;;14.43;100.00
63927;BME280;50103;47.960;21.712;2022-10-28T14:13:36;101736.31;;;14.43;100.00
63927;BME280;50103;47.960;21.712;2022-10-28T14:16:36;101734.16;;;14.43;100.00
63927;BME280;50103;47.960;21.712;2022-10-28T14:19:16;101731.11;;;14.41;100.00
63927;BME280;50103;47.960;21.712;2022-10-28T14:21:59;101734.09;;;14.38;100.00
63927;BME280;50103;47.960;21.712;2022-10-28T14:29:46;101737.36;;;14.27;100.00
63927;BME280;50103;47.960;21.712;2022-10-28T14:32:38;101730.29;;;14.27;100.00
63927;BME280;50103;47.960;21.712;2022-10-28T14:40:53;101714.39;;;14.22;100.00
63927;BME280;50103;47.960;21.712;2022-10-28T14:43:36;101714.52;;;14.20;100.00
63927;BME280;50103;47.960;21.712;2022-10-28T14:48:57;101708.80;;;14.18;100.00
63927;BME280;50103;47.960;21.712;2022-10-28T14:51:26;101704.98;;;14.17;100.00
63927;BME280;50103;47.960;21.712;2022-10-28T14:53:58;101703.73;;;14.14;100.00
63927;BME280;50103;47.960;21.712;2022-10-28T14:56:29;101707.01;;;14.13;100.00
63927;BME280;50103;47.960;21.712;2022-10-28T14:59:17;101712.02;;;14.10;100.00
63927;BME280;50103;47.960;21.712;2022-10-28T15:04:11;101716.52;;;14.09;100.00
63927;BME280;50103;47.960;21.712;2022-10-28T15:06:41;101708.96;;;14.08;100.00
63927;BME280;50103;47.960;21.712;2022-10-28T15:09:19;101707.09;;;14.07;100.00
63927;BME280;50103;47.960;21.712;2022-10-28T15:11:49;101707.60;;;14.05;100.00
63927;BME280;50103;47.960;21.712;2022-10-28T15:14:27;101710.13;;;14.04;100.00
63927;BME280;50103;47.960;21.712;2022-10-28T15:16:54;101710.67;;;14.01;100.00
63927;BME280;50103;47.960;21.712;2022-10-28T15:19:35;101710.50;;;13.98;100.00
63927;BME280;50103;47.960;21.712;2022-10-28T15:22:22;101713.80;;;13.97;100.00
63927;BME280;50103;47.960;21.712;2022-10-28T15:24:56;101716.02;;;13.96;100.00
63927;BME280;50103;47.960;21.712;2022-10-28T15:27:23;101714.47;;;13.95;100.00
63927;BME280;50103;47.960;21.712;2022-10-28T15:29:50;101714.34;;;13.95;100.00
63927;BME280;50103;47.960;21.712;2022-10-28T15:34:44;101709.55;;;13.94;100.00
63927;BME280;50103;47.960;21.712;2022-10-28T15:37:15;101712.55;;;13.95;100.00
63927;BME280;50103;47.960;21.712;2022-10-28T15:39:43;101713.35;;;13.94;100.00
63927;BME280;50103;47.960;21.712;2022-10-28T15:42:39;101707.58;;;13.89;100.00
63927;BME280;50103;47.960;21.712;2022-10-28T15:45:15;101703.80;;;13.85;100.00
63927;BME280;50103;47.960;21.712;2022-10-28T15:47:43;101700.22;;;13.82;100.00
63927;BME280;50103;47.960;21.712;2022-10-28T15:52:51;101697.89;;;13.78;100.00
63927;BME280;50103;47.960;21.712;2022-10-28T15:57:52;101693.57;;;13.76;100.00
63927;BME280;50103;47.960;21.712;2022-10-28T16:03:05;101693.20;;;13.74;100.00
63927;BME280;50103;47.960;21.712;2022-10-28T16:08:16;101693.23;;;13.70;100.00
63927;BME280;50103;47.960;21.712;2022-10-28T16:11:04;101694.86;;;13.67;100.00
63927;BME280;50103;47.960;21.712;2022-10-28T16:13:41;101697.36;;;13.64;100.00
63927;BME280;50103;47.960;21.712;2022-10-28T16:16:13;101691.96;;;13.63;100.00
63927;BME280;50103;47.960;21.712;2022-10-28T16:18:42;101690.07;;;13.62;100.00
63927;BME280;50103;47.960;21.712;2022-10-28T16:21:20;101693.14;;;13.61;100.00
63927;BME280;50103;47.960;21.712;2022-10-28T16:23:51;101697.58;;;13.59;100.00
63927;BME280;50103;47.960;21.712;2022-10-28T16:26:24;101698.57;;;13.57;100.00
63927;BME280;50103;47.960;21.712;2022-10-28T16:28:51;101700.10;;;13.56;100.00
63927;BME280;50103;47.960;21.712;2022-10-28T16:31:18;101698.52;;;13.55;100.00
63927;BME280;50103;47.960;21.712;2022-10-28T16:33:45;101697.98;;;13.55;100.00
63927;BME280;50103;47.960;21.712;2022-10-28T16:36:13;101696.77;;;13.55;100.00
63927;BME280;50103;47.960;21.712;2022-10-28T16:38:40;101692.89;;;13.54;100.00
63927;BME280;50103;47.960;21.712;2022-10-28T16:41:12;101692.00;;;13.54;100.00
63927;BME280;50103;47.960;21.712;2022-10-28T16:43:47;101694.81;;;13.55;100.00
63927;BME280;50103;47.960;21.712;2022-10-28T16:46:13;101694.81;;;13.52;100.00
63927;BME280;50103;47.960;21.712;2022-10-28T16:48:39;101693.16;;;13.50;100.00
63927;BME280;50103;47.960;21.712;2022-10-28T16:51:11;101691.98;;;13.49;100.00
63927;BME280;50103;47.960;21.712;2022-10-28T16:53:40;101688.73;;;13.47;100.00
63927;BME280;50103;47.960;21.712;2022-10-28T16:56:13;101685.13;;;13.46;100.00
63927;BME280;50103;47.960;21.712;2022-10-28T16:58:38;101686.53;;;13.43;100.00
63927;BME280;50103;47.960;21.712;2022-10-28T17:01:07;101694.30;;;13.42;100.00
63927;BME280;50103;47.960;21.712;2022-10-28T17:03:33;101696.04;;;13.40;100.00
63927;BME280;50103;47.960;21.712;2022-10-28T17:05:59;101697.80;;;13.37;100.00
63927;BME280;50103;47.960;21.712;2022-10-28T17:08:27;101698.03;;;13.36;100.00
63927;BME280;50103;47.960;21.712;2022-10-28T17:11:07;101700.73;;;13.36;100.00
63927;BME280;50103;47.960;21.712;2022-10-28T17:13:33;101703.05;;;13.36;100.00
63927;BME280;50103;47.960;21.712;2022-10-28T17:15:58;101707.73;;;13.35;100.00
63927;BME280;50103;47.960;21.712;2022-10-28T17:18:24;101711.25;;;13.33;100.00
63927;BME280;50103;47.960;21.712;2022-10-28T17:20:59;101708.98;;;13.32;100.00
63927;BME280;50103;47.960;21.712;2022-10-28T17:23:26;101709.67;;;13.29;100.00
63927;BME280;50103;47.960;21.712;2022-10-28T17:25:56;101706.00;;;13.29;100.00
63927;BME280;50103;47.960;21.712;2022-10-28T17:28:22;101706.13;;;13.27;100.00
63927;BME280;50103;47.960;21.712;2022-10-28T17:30:47;101704.16;;;13.27;100.00
63927;BME280;50103;47.960;21.712;2022-10-28T17:33:13;101704.88;;;13.27;100.00
63927;BME280;50103;47.960;21.712;2022-10-28T17:35:38;101707.36;;;13.27;100.00
63927;BME280;50103;47.960;21.712;2022-10-28T17:38:04;101704.48;;;13.27;100.00
63927;BME280;50103;47.960;21.712;2022-10-28T17:40:30;101705.89;;;13.28;100.00
63927;BME280;50103;47.960;21.712;2022-10-28T17:42:59;101707.52;;;13.27;100.00
63927;BME280;50103;47.960;21.712;2022-10-28T17:45:25;101708.02;;;13.28;100.00
63927;BME280;50103;47.960;21.712;2022-10-28T17:47:51;101707.32;;;13.27;100.00
63927;BME280;50103;47.960;21.712;2022-10-28T17:50:17;101705.59;;;13.27;100.00
63927;BME280;50103;47.960;21.712;2022-10-28T17:52:42;101705.02;;;13.25;100.00
63927;BME280;50103;47.960;21.712;2022-10-28T17:55:08;101706.98;;;13.22;100.00
63927;BME280;50103;47.960;21.712;2022-10-28T17:57:34;101709.48;;;13.19;100.00
63927;BME280;50103;47.960;21.712;2022-10-28T17:59:59;101711.75;;;13.17;100.00
63927;BME280;50103;47.960;21.712;2022-10-28T18:02:26;101713.46;;;13.15;100.00
63927;BME280;50103;47.960;21.712;2022-10-28T18:04:51;101716.63;;;13.13;100.00
63927;BME280;50103;47.960;21.712;2022-10-28T18:07:17;101715.46;;;13.12;100.00
63927;BME280;50103;47.960;21.712;2022-10-28T18:09:42;101709.01;;;13.10;100.00
63927;BME280;50103;47.960;21.712;2022-10-28T18:12:11;101704.15;;;13.08;100.00
63927;BME280;50103;47.960;21.712;2022-10-28T18:14:38;101708.29;;;13.07;100.00
63927;BME280;50103;47.960;21.712;2022-10-28T18:17:05;101706.23;;;13.06;100.00
63927;BME280;50103;47.960;21.712;2022-10-28T18:19:30;101705.07;;;13.05;100.00
63927;BME280;50103;47.960;21.712;2022-10-28T18:21:56;101706.25;;;13.03;100.00
63927;BME280;50103;47.960;21.712;2022-10-28T18:24:22;101705.11;;;13.01;100.00
63927;BME280;50103;47.960;21.712;2022-10-28T18:26:48;101707.50;;;13.00;100.00
63927;BME280;50103;47.960;21.712;2022-10-28T18:29:14;101710.02;;;12.97;100.00
63927;BME280;50103;47.960;21.712;2022-10-28T18:31:40;101712.65;;;12.95;100.00
63927;BME280;50103;47.960;21.712;2022-10-28T18:34:08;101711.64;;;12.94;100.00
63927;BME280;50103;47.960;21.712;2022-10-28T18:36:33;101708.99;;;12.93;100.00
63927;BME280;50103;47.960;21.712;2022-10-28T18:39:04;101705.80;;;12.93;100.00
63927;BME280;50103;47.960;21.712;2022-10-28T18:41:32;101703.98;;;12.94;100.00
63927;BME280;50103;47.960;21.712;2022-10-28T18:44:03;101705.91;;;12.94;100.00
63927;BME280;50103;47.960;21.712;2022-10-28T18:46:33;101702.84;;;12.95;100.00
63927;BME280;50103;47.960;21.712;2022-10-28T18:49:12;101697.80;;;12.93;100.00
63927;BME280;50103;47.960;21.712;2022-10-28T18:51:37;101698.52;;;12.90;100.00
63927;BME280;50103;47.960;21.712;2022-10-28T18:54:03;101695.73;;;12.89;100.00
63927;BME280;50103;47.960;21.712;2022-10-28T18:56:29;101700.86;;;12.87;100.00
63927;BME280;50103;47.960;21.712;2022-10-28T18:58:56;101701.34;;;12.85;100.00
